This is the latest recevied weather packets stored in our database for station/object PU5BHV. If no packets are shown the sender has not sent any weather packets the latest 10 day(s).
| Time | Temp. | Humidity | Pressure | Rain* | Wind** | Luminosity | Snow |
|---|---|---|---|---|---|---|---|
| 1778171984 | 29.44° C | 69% | 1008.7 hPa | 0 mm | - | 496 W/m² | - |
| 1778171681 | 29.44° C | 70% | 1009 hPa | 0 mm | - | 505 W/m² | - |
| 1778171378 | 29.44° C | 70% | 1009.5 hPa | 0 mm | - | 395 W/m² | - |
| 1778171073 | 30° C | 70% | 1009.5 hPa | 0 mm | - | 500 W/m² | - |
| 1778170771 | 28.89° C | 73% | 1009.6 hPa | 0 mm | - | 490 W/m² | - |
| 1778170466 | 28.89° C | 71% | 1009.9 hPa | 0 mm | - | 559 W/m² | - |
| 1778170164 | 28.89° C | 73% | 1009.9 hPa | 0 mm | - | 534 W/m² | - |
| 1778169860 | 28.89° C | 72% | 1010.2 hPa | 0 mm | - | 552 W/m² | - |
| 1778169556 | 28.89° C | 72% | 1010.2 hPa | 0 mm | - | 567 W/m² | - |
| 1778169252 | 28.33° C | 74% | 1010.3 hPa | 0 mm | - | 534 W/m² | - |
| 1778168949 | 28.33° C | 74% | 1010.3 hPa | 0 mm | - | 563 W/m² | - |
| 1778168646 | 28.89° C | 74% | 1010.7 hPa | 0 mm | - | 488 W/m² | - |
| 1778168343 | 28.89° C | 72% | 1010.8 hPa | 0 mm | - | 591 W/m² | - |
| 1778168186 | 28.89° C | 71% | 1011.1 hPa | 0 mm | - | 610 W/m² | - |
| 1778168039 | 28.89° C | 71% | 1011.1 hPa | 0 mm | - | 610 W/m² | - |
| 1778167944 | 28.89° C | 72% | 1010.9 hPa | 0 mm | - | 600 W/m² | - |
| 1778167736 | 28.89° C | 72% | 1010.9 hPa | 0 mm | - | 600 W/m² | - |
| 1778167649 | 28.89° C | 73% | 1011.2 hPa | 0 mm | - | 609 W/m² | - |
| 1778167432 | 29.44° C | 72% | 1011.1 hPa | 0 mm | - | 636 W/m² | - |
| 1778167128 | 28.89° C | 73% | 1011.2 hPa | 0 mm | - | 609 W/m² | - |
| 1778166824 | 28.33° C | 72% | 1011.3 hPa | 0 mm | - | 602 W/m² | - |
| 1778166522 | 28.33° C | 74% | 1011.7 hPa | 0 mm | - | 488 W/m² | - |
| 1778166218 | 28.33° C | 73% | 1011.9 hPa | 0 mm | - | 598 W/m² | - |
| 1778165914 | 27.78° C | 74% | 1011.9 hPa | 0 mm | - | 521 W/m² | - |
| 1778165611 | 28.89° C | 72% | 1011.9 hPa | 0 mm | - | 637 W/m² | - |
* Rain latest hour (hover to see other rain measurements)
** Current wind speed in m/s (hover to see current wind gust speed)